Time;durP1;ratioP1;P1;durP2;ratioP2;P2;SDS_P1;SDS_P2;PMS_P1;PMS_P2;Temp;Humidity;BMP_temperature;BMP_pressure;BME280_temperature;BME280_humidity;BME280_pressure;Samples;Min_cycle;Max_cycle;Signal;HPM_P1;HPM_P2
2023/10/09 00:02:09;;;;;;;7.45;5.70;;;;;;;;;;5065246;28;20039;-49
2023/10/09 00:04:36;;;;;;;8.82;6.50;;;;;;;;;;5054956;28;20025;-46
2023/10/09 00:07:03;;;;;;;6.90;6.18;;;;;;;;;;5055762;28;20045;-49
2023/10/09 00:09:32;;;;;;;6.97;5.75;;;;;;;;;;5054879;28;20032;-46
2023/10/09 00:11:58;;;;;;;8.23;6.68;;;;;;;;;;5059111;28;20049;-47
2023/10/09 00:14:35;;;;;;;8.07;5.78;;;;;;;;;;5056143;28;20020;-49
2023/10/09 00:17:17;;;;;;;8.38;6.82;;;;;;;;;;5064186;28;20048;-49
2023/10/09 00:19:49;;;;;;;7.32;5.75;;;;;;;;;;5050424;28;20040;-48
2023/10/09 00:24:50;;;;;;;8.02;6.10;;;;;;;;;;5056437;28;20126;-48
2023/10/09 00:27:19;;;;;;;9.32;8.27;;;;;;;;;;5058614;28;20061;-46
2023/10/09 00:29:45;;;;;;;9.95;8.02;;;;;;;;;;5058407;28;20047;-48
2023/10/09 00:32:27;;;;;;;7.88;6.18;;;;;;;;;;5060821;28;20052;-48
2023/10/09 00:34:58;;;;;;;7.07;6.38;;;;;;;;;;5049470;28;20021;-47
2023/10/09 00:37:25;;;;;;;7.57;5.63;;;;;;;;;;5051190;28;20180;-47
2023/10/09 00:39:57;;;;;;;10.38;6.55;;;;;;;;;;5054907;28;20020;-47
2023/10/09 00:42:29;;;;;;;7.95;7.05;;;;;;;;;;5061643;28;20052;-47
2023/10/09 00:44:55;;;;;;;9.63;6.70;;;;;;;;;;5055877;28;20032;-48
2023/10/09 00:47:33;;;;;;;7.28;6.45;;;;;;;;;;5063153;28;20102;-49
2023/10/09 00:50:21;;;;;;;8.80;6.72;;;;;;;;;;5054786;28;20029;-46
2023/10/09 00:53:01;;;;;;;7.80;6.68;;;;;;;;;;5058534;28;20122;-48
2023/10/09 00:55:45;;;;;;;8.60;6.32;;;;;;;;;;5055839;28;20116;-49
2023/10/09 00:58:14;;;;;;;8.23;7.10;;;;;;;;;;5061227;28;20660;-48
2023/10/09 01:05:38;;;;;;;8.40;7.40;;;;;;;;;;5059534;28;20043;-49
2023/10/09 01:08:16;;;;;;;8.45;7.00;;;;;;;;;;5055846;28;20041;-49
2023/10/09 01:10:51;;;;;;;9.35;6.82;;;;;;;;;;5053656;28;20469;-46
2023/10/09 01:13:18;;;;;;;8.27;7.40;;;;;;;;;;5062744;28;20490;-45
2023/10/09 01:15:44;;;;;;;8.90;6.88;;;;;;;;;;5054423;28;20035;-48
2023/10/09 01:18:10;;;;;;;8.85;7.72;;;;;;;;;;5050992;28;20034;-47
2023/10/09 01:20:41;;;;;;;8.57;7.07;;;;;;;;;;5058172;28;20033;-47
2023/10/09 01:23:09;;;;;;;9.63;7.03;;;;;;;;;;5052678;28;20037;-47
2023/10/09 01:25:44;;;;;;;11.00;7.75;;;;;;;;;;5054882;28;20021;-46
2023/10/09 01:28:09;;;;;;;10.18;6.25;;;;;;;;;;5056859;28;20044;-47
2023/10/09 01:30:41;;;;;;;8.93;7.70;;;;;;;;;;5056591;28;20374;-48
2023/10/09 01:33:12;;;;;;;7.57;6.47;;;;;;;;;;5050525;28;20041;-45
2023/10/09 01:35:46;;;;;;;8.02;7.25;;;;;;;;;;5046581;28;20024;-49
2023/10/09 01:38:13;;;;;;;8.80;7.18;;;;;;;;;;5050343;28;20041;-47
2023/10/09 01:40:38;;;;;;;8.60;6.80;;;;;;;;;;5052267;28;20368;-47
2023/10/09 01:43:04;;;;;;;9.95;7.07;;;;;;;;;;5062862;28;20037;-48
2023/10/09 01:45:29;;;;;;;9.60;7.03;;;;;;;;;;5055884;28;20036;-46
2023/10/09 01:47:55;;;;;;;8.73;6.72;;;;;;;;;;5061856;28;20032;-46
2023/10/09 01:50:24;;;;;;;10.25;7.55;;;;;;;;;;5056203;28;20044;-46
2023/10/09 01:52:51;;;;;;;7.85;6.43;;;;;;;;;;5061315;28;20043;-50
2023/10/09 01:58:05;;;;;;;10.48;6.38;;;;;;;;;;5058624;28;20048;-49
2023/10/09 02:00:35;;;;;;;7.45;6.60;;;;;;;;;;5057913;28;20032;-47
2023/10/09 02:03:05;;;;;;;7.63;5.70;;;;;;;;;;5060216;28;20053;-46
2023/10/09 02:05:33;;;;;;;7.88;7.10;;;;;;;;;;5056110;28;20035;-47
2023/10/09 02:08:02;;;;;;;8.85;6.82;;;;;;;;;;5062715;28;20575;-51
2023/10/09 02:12:58;;;;;;;7.82;6.63;;;;;;;;;;5058225;28;20064;-49
2023/10/09 02:26:17;;;;;;;7.55;5.75;;;;;;;;;;5050578;28;20395;-46
2023/10/09 02:28:43;;;;;;;8.38;5.97;;;;;;;;;;5056466;28;20044;-51
2023/10/09 02:31:12;;;;;;;9.18;5.53;;;;;;;;;;5059965;28;20031;-47
2023/10/09 02:33:39;;;;;;;8.45;6.28;;;;;;;;;;5059795;28;20083;-47
2023/10/09 02:36:08;;;;;;;10.55;7.43;;;;;;;;;;5071347;28;20029;-50
2023/10/09 02:38:36;;;;;;;6.78;6.10;;;;;;;;;;5055757;28;20063;-48
2023/10/09 02:43:34;;;;;;;9.63;7.65;;;;;;;;;;5059993;28;20118;-49
2023/10/09 02:46:12;;;;;;;11.63;7.30;;;;;;;;;;5064464;28;20028;-48
2023/10/09 02:48:42;;;;;;;8.02;6.03;;;;;;;;;;5050791;28;20037;-51
2023/10/09 02:51:14;;;;;;;9.55;8.13;;;;;;;;;;5056260;28;20497;-52
2023/10/09 02:53:40;;;;;;;9.60;6.75;;;;;;;;;;5059471;28;20060;-50
2023/10/09 02:56:17;;;;;;;10.80;6.88;;;;;;;;;;5058362;28;20383;-49
2023/10/09 02:58:43;;;;;;;7.80;6.60;;;;;;;;;;5059771;28;20060;-46
2023/10/09 03:01:13;;;;;;;10.00;8.70;;;;;;;;;;5052979;28;20475;-46
2023/10/09 03:03:41;;;;;;;7.53;6.70;;;;;;;;;;5055329;28;20041;-49
2023/10/09 03:06:11;;;;;;;8.38;5.35;;;;;;;;;;5062700;28;20020;-47
2023/10/09 03:08:37;;;;;;;9.40;6.97;;;;;;;;;;5062246;28;20071;-47
2023/10/09 03:11:05;;;;;;;7.53;6.07;;;;;;;;;;5058551;28;20041;-45
2023/10/09 03:13:33;;;;;;;9.70;6.45;;;;;;;;;;5059059;28;20037;-49
2023/10/09 03:15:59;;;;;;;8.57;6.30;;;;;;;;;;5050229;28;20401;-50
2023/10/09 03:18:24;;;;;;;7.80;7.03;;;;;;;;;;5061289;28;20042;-49
2023/10/09 03:20:50;;;;;;;8.18;6.03;;;;;;;;;;5058306;28;20116;-48
2023/10/09 03:23:16;;;;;;;9.70;6.97;;;;;;;;;;5055180;28;20048;-48
2023/10/09 03:25:45;;;;;;;8.77;7.15;;;;;;;;;;5057368;28;20107;-46
2023/10/09 03:28:12;;;;;;;7.95;5.43;;;;;;;;;;5055831;28;20056;-47
2023/10/09 03:30:40;;;;;;;8.43;6.15;;;;;;;;;;5054515;28;20021;-49
2023/10/09 03:33:06;;;;;;;7.70;5.75;;;;;;;;;;5057426;28;20103;-47
2023/10/09 03:35:34;;;;;;;8.48;6.82;;;;;;;;;;5054596;28;20024;-49
2023/10/09 03:38:02;;;;;;;8.75;7.00;;;;;;;;;;5060283;28;20029;-47
2023/10/09 03:40:27;;;;;;;8.32;6.47;;;;;;;;;;5056580;28;20033;-50
2023/10/09 03:42:53;;;;;;;8.60;5.72;;;;;;;;;;5059043;28;20032;-50
2023/10/09 03:45:26;;;;;;;8.05;6.00;;;;;;;;;;5062139;28;20505;-46
2023/10/09 03:48:01;;;;;;;8.57;5.70;;;;;;;;;;5060422;28;20048;-47
2023/10/09 03:50:35;;;;;;;8.77;5.97;;;;;;;;;;5052560;28;20024;-47
2023/10/09 03:53:02;;;;;;;7.65;6.15;;;;;;;;;;5059061;28;20518;-49
2023/10/09 03:55:28;;;;;;;6.90;6.07;;;;;;;;;;5056897;28;20028;-48
2023/10/09 03:57:57;;;;;;;6.85;5.25;;;;;;;;;;5055320;28;20056;-46
2023/10/09 04:00:27;;;;;;;7.25;6.30;;;;;;;;;;5058257;28;20028;-50
2023/10/09 04:02:54;;;;;;;7.18;5.95;;;;;;;;;;5064060;28;20082;-48
2023/10/09 04:05:20;;;;;;;6.38;4.60;;;;;;;;;;5058439;28;20048;-48
2023/10/09 04:07:45;;;;;;;7.15;5.80;;;;;;;;;;5055474;28;20048;-50
2023/10/09 04:12:58;;;;;;;7.15;5.60;;;;;;;;;;5058144;28;20062;-50
2023/10/09 04:15:24;;;;;;;7.72;5.65;;;;;;;;;;5055294;28;20044;-46
2023/10/09 04:17:51;;;;;;;6.70;4.97;;;;;;;;;;5057146;28;20578;-50
2023/10/09 04:22:59;;;;;;;7.38;4.82;;;;;;;;;;5054730;28;20029;-46
2023/10/09 04:25:25;;;;;;;7.22;6.50;;;;;;;;;;5057650;28;20036;-48
2023/10/09 04:30:42;;;;;;;5.72;5.03;;;;;;;;;;5059531;28;20036;-49
2023/10/09 04:33:57;;;;;;;9.43;5.72;;;;;;;;;;5055737;28;20045;-47
2023/10/09 04:41:28;;;;;;;6.88;5.43;;;;;;;;;;5054904;28;20031;-47
2023/10/09 04:44:04;;;;;;;6.93;5.18;;;;;;;;;;5058146;28;20103;-52
2023/10/09 04:46:43;;;;;;;9.15;6.47;;;;;;;;;;5051808;28;20021;-52
2023/10/09 04:49:27;;;;;;;8.98;5.70;;;;;;;;;;5051617;28;20076;-50
2023/10/09 04:52:09;;;;;;;6.75;5.65;;;;;;;;;;5057908;28;20045;-47
2023/10/09 04:55:02;;;;;;;6.95;5.15;;;;;;;;;;5048022;28;20376;-50
2023/10/09 04:57:26;;;;;;;6.65;5.30;;;;;;;;;;5053155;28;20032;-47
2023/10/09 04:59:51;;;;;;;6.85;6.15;;;;;;;;;;5054111;28;20086;-50
2023/10/09 05:02:19;;;;;;;8.45;7.63;;;;;;;;;;5051069;28;20450;-46
2023/10/09 05:04:51;;;;;;;8.52;5.75;;;;;;;;;;5064343;28;20031;-52
2023/10/09 05:07:49;;;;;;;9.20;5.80;;;;;;;;;;5052863;28;20113;-49
2023/10/09 05:10:17;;;;;;;6.45;5.32;;;;;;;;;;5052913;28;20044;-48
2023/10/09 05:12:47;;;;;;;8.95;7.15;;;;;;;;;;5050941;28;20076;-48
2023/10/09 05:15:14;;;;;;;7.95;5.97;;;;;;;;;;5052777;28;20095;-50
2023/10/09 05:17:45;;;;;;;7.53;6.18;;;;;;;;;;5049700;28;20063;-46
2023/10/09 05:23:23;;;;;;;7.07;5.57;;;;;;;;;;5029743;28;20041;-50
2023/10/09 05:25:55;;;;;;;7.72;5.95;;;;;;;;;;5058437;28;20028;-47
2023/10/09 05:28:31;;;;;;;7.80;5.63;;;;;;;;;;5053834;28;20052;-46
2023/10/09 05:31:07;;;;;;;8.55;4.90;;;;;;;;;;5047896;28;20017;-49
2023/10/09 05:33:39;;;;;;;8.95;5.85;;;;;;;;;;5057034;28;20127;-47
2023/10/09 05:36:31;;;;;;;6.63;5.78;;;;;;;;;;5048393;28;20025;-48
2023/10/09 05:39:17;;;;;;;10.23;5.97;;;;;;;;;;5052350;28;20582;-47
2023/10/09 05:41:53;;;;;;;10.77;6.03;;;;;;;;;;5056280;28;20068;-49
2023/10/09 05:55:48;;;;;;;7.78;5.72;;;;;;;;;;5044608;28;20033;-49
2023/10/09 06:11:54;;;;;;;7.68;5.90;;;;;;;;;;5062178;28;20136;-49
2023/10/09 06:14:45;;;;;;;10.98;6.03;;;;;;;;;;5055370;28;20490;-50
2023/10/09 06:19:48;;;;;;;8.85;5.82;;;;;;;;;;5056795;28;20112;-49
2023/10/09 06:25:08;;;;;;;7.80;5.20;;;;;;;;;;5056466;28;20528;-47
2023/10/09 06:30:24;;;;;;;7.85;5.88;;;;;;;;;;5057980;28;20033;-48
2023/10/09 06:33:04;;;;;;;9.15;5.88;;;;;;;;;;5057161;28;20041;-51
2023/10/09 06:35:39;;;;;;;6.82;6.05;;;;;;;;;;5054493;28;20029;-47
2023/10/09 06:38:22;;;;;;;7.15;4.68;;;;;;;;;;5057043;28;20740;-47
2023/10/09 06:51:07;;;;;;;7.35;6.20;;;;;;;;;;5063194;28;20785;-48
2023/10/09 06:59:21;;;;;;;10.48;6.90;;;;;;;;;;5051380;28;20139;-46
2023/10/09 07:07:07;;;;;;;7.28;5.32;;;;;;;;;;5062390;28;20509;-47
2023/10/09 07:09:42;;;;;;;8.38;6.68;;;;;;;;;;5058761;28;20082;-50
2023/10/09 07:12:25;;;;;;;7.70;5.90;;;;;;;;;;5064408;28;20120;-48
2023/10/09 07:17:23;;;;;;;8.80;6.22;;;;;;;;;;5053703;28;20033;-46
2023/10/09 07:24:58;;;;;;;7.90;6.05;;;;;;;;;;5053481;28;20035;-50
2023/10/09 07:35:47;;;;;;;7.95;5.47;;;;;;;;;;5070128;28;20082;-49
2023/10/09 07:38:20;;;;;;;8.60;6.20;;;;;;;;;;5055437;28;20037;-47
2023/10/09 07:43:45;;;;;;;6.95;6.20;;;;;;;;;;5015969;28;20041;-50
2023/10/09 07:49:14;;;;;;;8.55;6.75;;;;;;;;;;5051065;28;20048;-50
2023/10/09 07:51:43;;;;;;;9.98;5.47;;;;;;;;;;5055380;28;20095;-49
2023/10/09 07:54:09;;;;;;;7.38;5.47;;;;;;;;;;5058990;28;20038;-50
2023/10/09 07:56:41;;;;;;;7.32;5.07;;;;;;;;;;5055943;28;20056;-45
2023/10/09 07:59:11;;;;;;;13.00;6.63;;;;;;;;;;5053287;28;20029;-48
2023/10/09 08:02:02;;;;;;;9.40;6.82;;;;;;;;;;5068853;28;20036;-46
2023/10/09 08:04:38;;;;;;;13.98;7.57;;;;;;;;;;5054283;28;20033;-48
2023/10/09 08:07:07;;;;;;;9.00;6.65;;;;;;;;;;5046259;28;20041;-46
2023/10/09 08:09:46;;;;;;;9.30;7.18;;;;;;;;;;5056206;28;20080;-45
2023/10/09 08:12:39;;;;;;;10.88;6.20;;;;;;;;;;5050278;28;20045;-50
2023/10/09 08:15:20;;;;;;;12.27;7.97;;;;;;;;;;5059462;28;20036;-51
2023/10/09 08:17:53;;;;;;;11.30;7.25;;;;;;;;;;5062059;28;20036;-51
2023/10/09 08:20:36;;;;;;;8.35;7.22;;;;;;;;;;5045426;28;20459;-48
2023/10/09 08:23:04;;;;;;;12.52;8.55;;;;;;;;;;5056043;28;20077;-51
2023/10/09 08:25:33;;;;;;;10.32;6.68;;;;;;;;;;5058422;28;20106;-50
2023/10/09 08:35:55;;;;;;;8.13;6.55;;;;;;;;;;5053003;28;20052;-48
2023/10/09 08:38:23;;;;;;;12.57;5.95;;;;;;;;;;5058120;28;20037;-45
2023/10/09 08:40:50;;;;;;;8.88;5.55;;;;;;;;;;5055586;28;20486;-50
2023/10/09 08:43:21;;;;;;;12.15;6.20;;;;;;;;;;5056338;28;20044;-45
2023/10/09 08:45:53;;;;;;;8.75;4.88;;;;;;;;;;5048505;28;20033;-48
2023/10/09 08:48:21;;;;;;;6.90;5.30;;;;;;;;;;5048923;28;20029;-47
2023/10/09 08:50:54;;;;;;;9.57;5.47;;;;;;;;;;5055269;28;20033;-50
2023/10/09 08:53:20;;;;;;;7.55;5.43;;;;;;;;;;5057765;28;20032;-48
2023/10/09 08:55:46;;;;;;;9.02;5.18;;;;;;;;;;5049224;28;20029;-50
2023/10/09 08:58:36;;;;;;;7.57;5.82;;;;;;;;;;5055890;28;20849;-50
2023/10/09 09:01:02;;;;;;;10.77;5.43;;;;;;;;;;5051486;28;20106;-51
2023/10/09 09:03:38;;;;;;;8.45;5.35;;;;;;;;;;5053448;28;20045;-50
2023/10/09 09:06:04;;;;;;;6.97;4.68;;;;;;;;;;5054402;28;20131;-48
2023/10/09 09:08:31;;;;;;;7.03;5.45;;;;;;;;;;5055332;28;20091;-47
2023/10/09 09:11:13;;;;;;;9.13;4.97;;;;;;;;;;5046299;28;20032;-49
2023/10/09 09:13:58;;;;;;;7.97;4.60;;;;;;;;;;5049811;28;20064;-51
2023/10/09 09:16:31;;;;;;;7.05;5.78;;;;;;;;;;5049239;28;20037;-50
2023/10/09 09:21:42;;;;;;;7.30;5.97;;;;;;;;;;5055309;28;20128;-50
2023/10/09 09:26:59;;;;;;;7.65;5.72;;;;;;;;;;5061901;28;20108;-51
2023/10/09 09:29:55;;;;;;;7.68;5.88;;;;;;;;;;5052094;28;20017;-47
2023/10/09 09:32:35;;;;;;;8.65;6.32;;;;;;;;;;5054776;28;20057;-52
2023/10/09 09:35:02;;;;;;;8.43;4.80;;;;;;;;;;5048795;28;20043;-51
2023/10/09 09:37:28;;;;;;;8.73;5.45;;;;;;;;;;5054833;28;20037;-49
2023/10/09 09:40:14;;;;;;;11.13;5.85;;;;;;;;;;5061615;28;20482;-50
2023/10/09 09:42:44;;;;;;;10.02;6.47;;;;;;;;;;5053222;28;20037;-46
2023/10/09 09:45:11;;;;;;;9.32;7.15;;;;;;;;;;5056334;28;20033;-50
2023/10/09 09:47:37;;;;;;;8.88;7.53;;;;;;;;;;5060018;28;20050;-50
2023/10/09 09:50:12;;;;;;;8.68;6.57;;;;;;;;;;5058116;28;20036;-49
2023/10/09 09:52:38;;;;;;;10.80;6.45;;;;;;;;;;5048792;28;20053;-50
2023/10/09 09:55:05;;;;;;;10.63;6.47;;;;;;;;;;5052029;28;20026;-52
2023/10/09 09:57:32;;;;;;;9.38;6.45;;;;;;;;;;5058049;28;20047;-51
2023/10/09 10:00:01;;;;;;;13.88;5.93;;;;;;;;;;5062019;28;20082;-47
2023/10/09 10:02:35;;;;;;;8.45;5.97;;;;;;;;;;5053997;28;20051;-47
2023/10/09 10:05:06;;;;;;;9.43;6.80;;;;;;;;;;5056429;28;20371;-50
2023/10/09 10:07:41;;;;;;;11.10;6.55;;;;;;;;;;5056678;28;20045;-52
2023/10/09 10:10:47;;;;;;;9.27;6.35;;;;;;;;;;5054477;28;20029;-49
2023/10/09 10:13:18;;;;;;;10.57;5.53;;;;;;;;;;5053410;28;20037;-50
2023/10/09 10:16:13;;;;;;;8.55;5.10;;;;;;;;;;5063170;28;20068;-49
2023/10/09 10:21:49;;;;;;;6.57;5.53;;;;;;;;;;5055740;28;20094;-50
2023/10/09 10:24:30;;;;;;;7.07;5.47;;;;;;;;;;5059081;28;20405;-53
2023/10/09 10:30:12;;;;;;;9.43;6.50;;;;;;;;;;5042885;28;20071;-53
2023/10/09 10:33:10;;;;;;;12.80;6.63;;;;;;;;;;5053446;28;20041;-51
2023/10/09 10:38:42;;;;;;;9.70;6.25;;;;;;;;;;5060419;28;20067;-48
2023/10/09 10:41:19;;;;;;;9.57;6.82;;;;;;;;;;5059743;28;20032;-49
2023/10/09 10:51:39;;;;;;;9.38;6.82;;;;;;;;;;5051723;28;20036;-49
2023/10/09 10:56:51;;;;;;;9.15;7.32;;;;;;;;;;5055218;28;20072;-48
2023/10/09 10:59:24;;;;;;;8.60;6.05;;;;;;;;;;5057267;28;20039;-49
2023/10/09 11:01:57;;;;;;;9.35;6.60;;;;;;;;;;5056515;28;20120;-52
2023/10/09 11:04:27;;;;;;;9.80;6.07;;;;;;;;;;5055127;28;20033;-50
2023/10/09 11:07:00;;;;;;;9.40;6.38;;;;;;;;;;5045757;28;20652;-49
2023/10/09 11:09:35;;;;;;;12.95;8.40;;;;;;;;;;5036666;28;20029;-48
2023/10/09 11:12:22;;;;;;;9.30;7.22;;;;;;;;;;5037069;28;20099;-50
2023/10/09 11:15:05;;;;;;;9.27;6.72;;;;;;;;;;5024251;28;20049;-48
2023/10/09 11:17:40;;;;;;;10.68;7.63;;;;;;;;;;5025623;28;20094;-50
2023/10/09 11:20:26;;;;;;;13.05;8.45;;;;;;;;;;5036458;28;20025;-46
2023/10/09 11:25:38;;;;;;;11.32;8.98;;;;;;;;;;5053733;28;20036;-51
2023/10/09 11:28:15;;;;;;;9.27;6.22;;;;;;;;;;5051005;28;20045;-51
2023/10/09 11:30:45;;;;;;;12.90;7.90;;;;;;;;;;5052964;28;20391;-46
2023/10/09 11:33:14;;;;;;;10.63;7.53;;;;;;;;;;5060699;28;20048;-46
2023/10/09 11:35:42;;;;;;;;;;;;;;;;;;5057570;28;20048;-48
2023/10/09 11:38:21;;;;;;;9.85;6.90;;;;;;;;;;5047676;28;19917;-51
2023/10/09 11:43:23;;;;;;;10.50;7.60;;;;;;;;;;5048969;28;20037;-52
2023/10/09 11:45:54;;;;;;;11.60;8.10;;;;;;;;;;5055540;28;20032;-50
2023/10/09 11:48:28;;;;;;;14.32;8.07;;;;;;;;;;5059873;28;20049;-48
2023/10/09 11:51:18;;;;;;;10.35;7.93;;;;;;;;;;5047396;28;20086;-48
2023/10/09 11:53:43;;;;;;;10.27;8.15;;;;;;;;;;5048798;28;20041;-48
2023/10/09 11:56:13;;;;;;;11.57;8.65;;;;;;;;;;5055049;28;20060;-48
2023/10/09 11:58:40;;;;;;;9.85;8.93;;;;;;;;;;5056073;28;20029;-47
2023/10/09 12:01:17;;;;;;;13.48;8.50;;;;;;;;;;5056046;28;20029;-50
2023/10/09 12:03:49;;;;;;;9.52;7.78;;;;;;;;;;5055111;28;20513;-48
2023/10/09 12:06:14;;;;;;;13.88;9.25;;;;;;;;;;5052270;28;20473;-47
2023/10/09 12:08:40;;;;;;;8.85;7.93;;;;;;;;;;5059029;28;20021;-48
2023/10/09 12:11:09;;;;;;;9.82;7.78;;;;;;;;;;5055544;28;20162;-49
2023/10/09 12:13:35;;;;;;;12.48;7.30;;;;;;;;;;5058265;28;20032;-51
2023/10/09 12:16:00;;;;;;;9.95;6.65;;;;;;;;;;5052623;28;20390;-50
2023/10/09 12:18:28;;;;;;;9.57;7.55;;;;;;;;;;5049383;28;20037;-50
2023/10/09 12:21:02;;;;;;;9.60;5.80;;;;;;;;;;5052007;28;20028;-49
2023/10/09 12:23:28;;;;;;;10.80;7.93;;;;;;;;;;5055307;28;20120;-50
2023/10/09 12:25:56;;;;;;;7.35;6.65;;;;;;;;;;5054207;28;20525;-51
2023/10/09 12:28:22;;;;;;;;;;;;;;;;;;5056135;28;20041;-49
2023/10/09 12:30:51;;;;;;;6.78;6.03;;;;;;;;;;5055638;28;19912;-48
2023/10/09 12:33:27;;;;;;;7.90;7.07;;;;;;;;;;5051862;28;20057;-52
2023/10/09 12:35:58;;;;;;;7.80;6.82;;;;;;;;;;5052506;28;20017;-47
2023/10/09 12:38:31;;;;;;;9.23;7.72;;;;;;;;;;5055391;28;20053;-49
2023/10/09 12:41:25;;;;;;;9.45;7.40;;;;;;;;;;5054382;28;20060;-50
2023/10/09 12:43:51;;;;;;;11.90;8.55;;;;;;;;;;5065562;28;20118;-50
2023/10/09 12:46:17;;;;;;;10.35;8.32;;;;;;;;;;5049497;28;20090;-49
2023/10/09 12:48:47;;;;;;;9.07;7.97;;;;;;;;;;5050720;28;20033;-53
2023/10/09 12:51:16;;;;;;;9.00;7.90;;;;;;;;;;5048354;28;20040;-46
2023/10/09 12:53:45;;;;;;;12.23;7.28;;;;;;;;;;5060644;28;20053;-49
2023/10/09 12:56:12;;;;;;;11.75;10.82;;;;;;;;;;5057781;28;20052;-50
2023/10/09 12:58:38;;;;;;;8.68;7.38;;;;;;;;;;5055352;28;20044;-50
2023/10/09 13:01:11;;;;;;;8.00;6.93;;;;;;;;;;5051633;28;20039;-50
2023/10/09 13:03:39;;;;;;;8.77;7.55;;;;;;;;;;5059452;28;20490;-53
2023/10/09 13:06:10;;;;;;;8.50;6.90;;;;;;;;;;5054400;28;20458;-50
2023/10/09 13:08:36;;;;;;;7.00;6.07;;;;;;;;;;5054239;28;20048;-46
2023/10/09 13:11:19;;;;;;;6.07;5.45;;;;;;;;;;5056351;28;20052;-52
2023/10/09 13:13:51;;;;;;;7.95;7.10;;;;;;;;;;5051754;28;20049;-50
2023/10/09 13:16:25;;;;;;;7.53;6.10;;;;;;;;;;5047557;28;20036;-49
2023/10/09 13:18:51;;;;;;;8.07;7.35;;;;;;;;;;5054851;28;20032;-51
2023/10/09 13:21:26;;;;;;;10.55;8.23;;;;;;;;;;5056491;28;20040;-50
2023/10/09 13:23:54;;;;;;;7.72;6.20;;;;;;;;;;5050700;28;20056;-48
2023/10/09 13:26:27;;;;;;;7.07;6.10;;;;;;;;;;5051808;28;20160;-47
2023/10/09 13:28:54;;;;;;;5.45;4.95;;;;;;;;;;5056478;28;20094;-52
2023/10/09 13:31:21;;;;;;;5.88;4.63;;;;;;;;;;5048708;28;20048;-51
2023/10/09 13:33:48;;;;;;;6.53;5.60;;;;;;;;;;5046454;28;20020;-53
2023/10/09 13:36:19;;;;;;;6.85;5.25;;;;;;;;;;5053260;28;20029;-51
2023/10/09 13:38:47;;;;;;;10.93;5.80;;;;;;;;;;5061150;28;20046;-50
2023/10/09 13:41:13;;;;;;;6.78;6.00;;;;;;;;;;5055112;28;20032;-46
2023/10/09 13:43:43;;;;;;;8.45;7.75;;;;;;;;;;5054490;28;20088;-49
2023/10/09 13:46:09;;;;;;;9.40;6.63;;;;;;;;;;5060091;28;20028;-52
2023/10/09 13:48:40;;;;;;;6.60;5.85;;;;;;;;;;5066598;28;20045;-49
2023/10/09 13:51:13;;;;;;;7.80;6.70;;;;;;;;;;5057927;28;20029;-50
2023/10/09 13:53:44;;;;;;;7.10;5.53;;;;;;;;;;5052235;28;20380;-53
2023/10/09 13:56:14;;;;;;;7.78;7.03;;;;;;;;;;5053884;28;20037;-48
2023/10/09 13:58:42;;;;;;;9.05;6.25;;;;;;;;;;5051800;28;20102;-46
2023/10/09 14:01:08;;;;;;;7.80;7.00;;;;;;;;;;5048272;28;20037;-45
2023/10/09 14:03:34;;;;;;;8.48;6.90;;;;;;;;;;5063026;28;20037;-51
2023/10/09 14:06:10;;;;;;;8.15;6.32;;;;;;;;;;5068304;28;20036;-49
2023/10/09 14:08:41;;;;;;;10.90;7.95;;;;;;;;;;5065146;28;20040;-47
2023/10/09 14:11:13;;;;;;;9.30;7.32;;;;;;;;;;5051915;28;20082;-47
2023/10/09 14:13:41;;;;;;;9.10;7.38;;;;;;;;;;5057917;28;20044;-47
2023/10/09 14:16:06;;;;;;;10.63;8.38;;;;;;;;;;5068688;28;20393;-48
2023/10/09 14:18:32;;;;;;;8.77;8.02;;;;;;;;;;5053836;28;20084;-49
2023/10/09 14:21:06;;;;;;;8.50;7.60;;;;;;;;;;5052767;28;20121;-50
2023/10/09 14:23:34;;;;;;;8.80;8.00;;;;;;;;;;5058994;28;20087;-53
2023/10/09 14:26:01;;;;;;;8.75;7.82;;;;;;;;;;5045853;28;20031;-50
2023/10/09 14:28:28;;;;;;;7.15;6.45;;;;;;;;;;5063397;28;20090;-51
2023/10/09 14:30:59;;;;;;;8.45;7.40;;;;;;;;;;5058010;28;20074;-46
2023/10/09 14:33:25;;;;;;;9.55;8.70;;;;;;;;;;5051261;28;20037;-51
2023/10/09 14:35:52;;;;;;;9.10;6.60;;;;;;;;;;5052633;28;20048;-51
2023/10/09 14:38:21;;;;;;;9.63;7.15;;;;;;;;;;5055135;28;20094;-48
2023/10/09 14:40:47;;;;;;;10.63;7.22;;;;;;;;;;5058478;28;20041;-46
2023/10/09 14:43:19;;;;;;;8.27;7.47;;;;;;;;;;5057512;28;20037;-48
2023/10/09 14:45:48;;;;;;;7.35;6.65;;;;;;;;;;5043323;28;20033;-47
2023/10/09 14:48:17;;;;;;;8.60;7.45;;;;;;;;;;5054153;28;20040;-52
2023/10/09 14:50:52;;;;;;;11.18;10.07;;;;;;;;;;5056119;28;20055;-49
2023/10/09 14:53:19;;;;;;;9.63;7.47;;;;;;;;;;5047377;28;20038;-49
2023/10/09 14:55:45;;;;;;;8.77;7.88;;;;;;;;;;5054653;28;20032;-49
2023/10/09 14:58:15;;;;;;;7.57;6.75;;;;;;;;;;5047844;28;20810;-49
2023/10/09 15:00:46;;;;;;;9.77;7.15;;;;;;;;;;5047777;28;20036;-50
2023/10/09 15:03:14;;;;;;;8.40;6.82;;;;;;;;;;5052848;28;20040;-48
2023/10/09 15:05:43;;;;;;;7.78;6.90;;;;;;;;;;5052527;28;20111;-49
2023/10/09 15:08:10;;;;;;;9.32;8.40;;;;;;;;;;5055552;28;20076;-50
2023/10/09 15:10:45;;;;;;;8.70;7.13;;;;;;;;;;5051134;28;20089;-49
2023/10/09 15:13:13;;;;;;;;;;;;;;;;;;5057908;28;20243;-48
2023/10/09 15:15:45;;;;;;;9.98;8.15;;;;;;;;;;5062070;28;19970;-49
2023/10/09 15:18:14;;;;;;;7.47;6.20;;;;;;;;;;5051351;28;20048;-48
2023/10/09 15:20:40;;;;;;;9.10;6.78;;;;;;;;;;5049547;28;20025;-48
2023/10/09 15:23:06;;;;;;;7.10;6.07;;;;;;;;;;5050459;28;20099;-46
2023/10/09 15:25:33;;;;;;;9.05;6.57;;;;;;;;;;5059221;28;20041;-50
2023/10/09 15:28:00;;;;;;;9.05;7.22;;;;;;;;;;5058354;28;20040;-51
2023/10/09 15:30:28;;;;;;;9.43;7.88;;;;;;;;;;5053065;28;20058;-48
2023/10/09 15:32:56;;;;;;;8.02;7.22;;;;;;;;;;5056814;28;20057;-51
2023/10/09 15:35:22;;;;;;;;;;;;;;;;;;5067029;28;20026;-52
2023/10/09 15:37:47;;;;;;;8.43;7.38;;;;;;;;;;5048489;28;19931;-51
2023/10/09 15:40:18;;;;;;;7.88;7.07;;;;;;;;;;5049432;28;20033;-50
2023/10/09 15:42:49;;;;;;;8.77;8.02;;;;;;;;;;5055622;28;20029;-48
2023/10/09 15:45:21;;;;;;;6.75;5.93;;;;;;;;;;5048644;28;20047;-49
2023/10/09 15:47:47;;;;;;;8.15;7.35;;;;;;;;;;5049579;28;20040;-52
2023/10/09 15:50:14;;;;;;;9.55;7.05;;;;;;;;;;5056248;28;20518;-50
2023/10/09 15:52:40;;;;;;;8.50;6.50;;;;;;;;;;5051184;28;20406;-51
2023/10/09 15:55:13;;;;;;;7.40;6.30;;;;;;;;;;5053229;28;20115;-46
2023/10/09 15:57:39;;;;;;;8.73;7.93;;;;;;;;;;5057308;28;20040;-49
2023/10/09 16:00:13;;;;;;;8.38;7.53;;;;;;;;;;5056283;28;20033;-49
2023/10/09 16:02:43;;;;;;;7.53;6.38;;;;;;;;;;5056989;28;20118;-50
2023/10/09 16:05:11;;;;;;;8.77;8.00;;;;;;;;;;5054672;28;20028;-50
2023/10/09 16:07:38;;;;;;;8.00;6.43;;;;;;;;;;5055339;28;20033;-52
2023/10/09 16:10:05;;;;;;;7.07;6.30;;;;;;;;;;5061738;28;20024;-50
2023/10/09 16:12:31;;;;;;;7.95;5.95;;;;;;;;;;5058670;28;20032;-50
2023/10/09 16:14:57;;;;;;;7.60;6.63;;;;;;;;;;5049864;28;20033;-51
2023/10/09 16:17:24;;;;;;;8.13;6.18;;;;;;;;;;5051900;28;20037;-51
2023/10/09 16:19:50;;;;;;;8.35;7.05;;;;;;;;;;5050978;28;20028;-48
2023/10/09 16:22:17;;;;;;;6.93;6.22;;;;;;;;;;5056272;28;20033;-48
2023/10/09 16:24:44;;;;;;;11.98;5.80;;;;;;;;;;5050652;28;20035;-48
2023/10/09 16:27:10;;;;;;;6.95;6.38;;;;;;;;;;5049958;28;20482;-49
2023/10/09 16:29:36;;;;;;;7.05;6.32;;;;;;;;;;5046349;28;20028;-48
2023/10/09 16:32:02;;;;;;;9.15;8.27;;;;;;;;;;5046026;28;20059;-47
2023/10/09 16:34:29;;;;;;;8.07;7.18;;;;;;;;;;5043867;28;20024;-48
2023/10/09 16:36:54;;;;;;;7.65;6.90;;;;;;;;;;5053815;28;20124;-48
2023/10/09 16:39:22;;;;;;;8.93;8.05;;;;;;;;;;5052905;28;20085;-49
2023/10/09 16:41:48;;;;;;;9.15;8.35;;;;;;;;;;5055157;28;20128;-50
2023/10/09 16:44:17;;;;;;;9.23;8.43;;;;;;;;;;5050493;28;20032;-53
2023/10/09 16:46:46;;;;;;;9.00;8.13;;;;;;;;;;5048010;28;20053;-50
2023/10/09 16:49:13;;;;;;;8.43;7.53;;;;;;;;;;5049269;28;20036;-49
2023/10/09 16:51:42;;;;;;;10.52;9.48;;;;;;;;;;5042247;28;20041;-51
2023/10/09 16:54:14;;;;;;;9.35;8.55;;;;;;;;;;5052371;28;20021;-51
2023/10/09 16:56:42;;;;;;;8.23;7.43;;;;;;;;;;5051042;28;20048;-46
2023/10/09 16:59:14;;;;;;;11.75;10.55;;;;;;;;;;5041803;28;20060;-51
2023/10/09 17:01:44;;;;;;;11.05;10.05;;;;;;;;;;5056649;28;20041;-49
2023/10/09 17:04:16;;;;;;;11.05;9.95;;;;;;;;;;5057980;28;20035;-49
2023/10/09 17:06:47;;;;;;;10.85;9.93;;;;;;;;;;5046456;28;20041;-50
2023/10/09 17:09:12;;;;;;;12.57;11.40;;;;;;;;;;5050409;28;20029;-50
2023/10/09 17:11:41;;;;;;;13.77;10.75;;;;;;;;;;5044089;28;20048;-49
2023/10/09 17:14:12;;;;;;;13.73;12.45;;;;;;;;;;5054765;28;20033;-46
2023/10/09 17:16:40;;;;;;;10.10;9.10;;;;;;;;;;5053298;28;20048;-50
2023/10/09 17:19:07;;;;;;;;;;;;;;;;;;5057135;28;20032;-50
2023/10/09 17:21:36;;;;;;;10.70;9.45;;;;;;;;;;5053155;28;19916;-51
2023/10/09 17:24:02;;;;;;;11.70;10.50;;;;;;;;;;5054008;28;20044;-49
2023/10/09 17:26:29;;;;;;;12.93;11.05;;;;;;;;;;5053275;28;20033;-48
2023/10/09 17:28:55;;;;;;;11.27;9.68;;;;;;;;;;5049321;28;20307;-46
2023/10/09 17:31:23;;;;;;;13.90;10.05;;;;;;;;;;5049014;28;20124;-47
2023/10/09 17:33:49;;;;;;;;;;;;;;;;;;5054087;28;20658;-49
2023/10/09 17:36:17;;;;;;;15.32;11.98;;;;;;;;;;5052546;28;19920;-49
2023/10/09 17:38:49;;;;;;;11.85;10.60;;;;;;;;;;5043376;28;20446;-49
2023/10/09 17:41:15;;;;;;;14.18;12.68;;;;;;;;;;5045653;28;20055;-51